sensor_id;sensor_type;location;lat;lon;timestamp;temperature;humidity
31819;DHT22;18384;48.860;9.188;2023-02-15T00:00:34;3.50;99.90
31819;DHT22;18384;48.860;9.188;2023-02-15T00:03:00;3.50;99.90
31819;DHT22;18384;48.860;9.188;2023-02-15T00:05:27;3.50;99.90
31819;DHT22;18384;48.860;9.188;2023-02-15T00:07:54;3.50;99.90
31819;DHT22;18384;48.860;9.188;2023-02-15T00:10:20;3.50;99.90
31819;DHT22;18384;48.860;9.188;2023-02-15T00:12:47;3.50;99.90
31819;DHT22;18384;48.860;9.188;2023-02-15T00:15:13;3.50;99.90
31819;DHT22;18384;48.860;9.188;2023-02-15T00:17:39;3.50;99.90
31819;DHT22;18384;48.860;9.188;2023-02-15T00:20:06;3.50;99.90
31819;DHT22;18384;48.860;9.188;2023-02-15T00:22:32;3.50;99.90
31819;DHT22;18384;48.860;9.188;2023-02-15T00:24:58;3.50;99.90
31819;DHT22;18384;48.860;9.188;2023-02-15T00:27:24;3.40;99.90
31819;DHT22;18384;48.860;9.188;2023-02-15T00:29:50;3.40;99.90
31819;DHT22;18384;48.860;9.188;2023-02-15T00:32:16;3.40;99.90
31819;DHT22;18384;48.860;9.188;2023-02-15T00:34:42;3.40;99.90
31819;DHT22;18384;48.860;9.188;2023-02-15T00:37:09;3.40;99.90
31819;DHT22;18384;48.860;9.188;2023-02-15T00:39:35;3.30;99.90
31819;DHT22;18384;48.860;9.188;2023-02-15T00:42:01;3.30;99.90
31819;DHT22;18384;48.860;9.188;2023-02-15T00:44:27;3.30;99.90
31819;DHT22;18384;48.860;9.188;2023-02-15T00:46:53;3.30;99.90
31819;DHT22;18384;48.860;9.188;2023-02-15T00:49:19;3.30;99.90
31819;DHT22;18384;48.860;9.188;2023-02-15T00:51:45;3.30;99.90
31819;DHT22;18384;48.860;9.188;2023-02-15T00:54:11;3.30;99.90
31819;DHT22;18384;48.860;9.188;2023-02-15T00:56:37;3.30;99.90
31819;DHT22;18384;48.860;9.188;2023-02-15T00:59:04;3.40;99.90
31819;DHT22;18384;48.860;9.188;2023-02-15T01:01:30;3.30;99.90
31819;DHT22;18384;48.860;9.188;2023-02-15T01:03:56;3.30;99.90
31819;DHT22;18384;48.860;9.188;2023-02-15T01:06:22;3.20;99.90
31819;DHT22;18384;48.860;9.188;2023-02-15T01:08:48;3.20;99.90
31819;DHT22;18384;48.860;9.188;2023-02-15T01:11:20;3.20;99.90
31819;DHT22;18384;48.860;9.188;2023-02-15T01:13:52;3.20;99.90
31819;DHT22;18384;48.860;9.188;2023-02-15T01:16:24;3.20;99.90
31819;DHT22;18384;48.860;9.188;2023-02-15T01:18:51;3.20;99.90
31819;DHT22;18384;48.860;9.188;2023-02-15T01:21:20;3.20;99.90
31819;DHT22;18384;48.860;9.188;2023-02-15T01:23:47;3.20;99.90
31819;DHT22;18384;48.860;9.188;2023-02-15T01:26:13;3.20;99.90
31819;DHT22;18384;48.860;9.188;2023-02-15T01:28:40;3.20;99.90
31819;DHT22;18384;48.860;9.188;2023-02-15T01:31:07;3.20;99.90
31819;DHT22;18384;48.860;9.188;2023-02-15T01:33:35;3.50;99.90
31819;DHT22;18384;48.860;9.188;2023-02-15T01:36:02;3.20;99.90
31819;DHT22;18384;48.860;9.188;2023-02-15T01:38:28;3.20;99.90
31819;DHT22;18384;48.860;9.188;2023-02-15T01:40:54;3.10;99.90
31819;DHT22;18384;48.860;9.188;2023-02-15T01:43:48;3.20;99.90
31819;DHT22;18384;48.860;9.188;2023-02-15T01:46:19;3.20;99.90
31819;DHT22;18384;48.860;9.188;2023-02-15T01:48:54;3.10;99.90
31819;DHT22;18384;48.860;9.188;2023-02-15T01:51:36;3.10;99.90
31819;DHT22;18384;48.860;9.188;2023-02-15T01:54:17;4.70;99.90
31819;DHT22;18384;48.860;9.188;2023-02-15T01:56:50;3.10;99.90
31819;DHT22;18384;48.860;9.188;2023-02-15T01:59:19;2.80;99.90
31819;DHT22;18384;48.860;9.188;2023-02-15T02:01:49;3.10;99.90
31819;DHT22;18384;48.860;9.188;2023-02-15T02:04:29;3.10;99.90
31819;DHT22;18384;48.860;9.188;2023-02-15T02:06:58;3.10;99.90
31819;DHT22;18384;48.860;9.188;2023-02-15T02:09:25;3.10;99.90
31819;DHT22;18384;48.860;9.188;2023-02-15T02:11:52;3.00;99.90
31819;DHT22;18384;48.860;9.188;2023-02-15T02:14:20;3.00;99.90
31819;DHT22;18384;48.860;9.188;2023-02-15T02:16:53;3.00;99.90
31819;DHT22;18384;48.860;9.188;2023-02-15T02:21:13;3.00;99.90
31819;DHT22;18384;48.860;9.188;2023-02-15T02:29:56;2.90;99.90
31819;DHT22;18384;48.860;9.188;2023-02-15T02:33:10;3.00;99.90
31819;DHT22;18384;48.860;9.188;2023-02-15T02:36:16;2.90;99.90
31819;DHT22;18384;48.860;9.188;2023-02-15T02:45:03;2.80;99.90
31819;DHT22;18384;48.860;9.188;2023-02-15T02:47:48;2.70;99.90
31819;DHT22;18384;48.860;9.188;2023-02-15T02:50:26;2.60;99.90
31819;DHT22;18384;48.860;9.188;2023-02-15T02:52:56;2.60;99.90
31819;DHT22;18384;48.860;9.188;2023-02-15T02:59:36;2.50;99.90
31819;DHT22;18384;48.860;9.188;2023-02-15T03:02:16;2.40;99.90
31819;DHT22;18384;48.860;9.188;2023-02-15T03:04:47;2.40;99.90
31819;DHT22;18384;48.860;9.188;2023-02-15T03:07:24;2.40;99.90
31819;DHT22;18384;48.860;9.188;2023-02-15T03:09:55;2.40;99.90
31819;DHT22;18384;48.860;9.188;2023-02-15T03:12:32;2.40;99.90
31819;DHT22;18384;48.860;9.188;2023-02-15T03:15:15;2.40;99.90
31819;DHT22;18384;48.860;9.188;2023-02-15T03:17:46;2.40;99.90
31819;DHT22;18384;48.860;9.188;2023-02-15T03:20:31;2.40;99.90
31819;DHT22;18384;48.860;9.188;2023-02-15T03:23:14;2.50;99.90
31819;DHT22;18384;48.860;9.188;2023-02-15T03:25:46;2.50;99.90
31819;DHT22;18384;48.860;9.188;2023-02-15T03:28:20;2.30;99.90
31819;DHT22;18384;48.860;9.188;2023-02-15T03:30:56;2.30;99.90
31819;DHT22;18384;48.860;9.188;2023-02-15T03:33:26;2.30;99.90
31819;DHT22;18384;48.860;9.188;2023-02-15T03:36:11;2.30;99.90
31819;DHT22;18384;48.860;9.188;2023-02-15T03:38:56;2.30;99.90
31819;DHT22;18384;48.860;9.188;2023-02-15T03:41:30;2.30;99.90
31819;DHT22;18384;48.860;9.188;2023-02-15T03:44:08;3.90;99.90
31819;DHT22;18384;48.860;9.188;2023-02-15T03:48:15;2.30;99.90
31819;DHT22;18384;48.860;9.188;2023-02-15T03:50:41;2.40;99.90
31819;DHT22;18384;48.860;9.188;2023-02-15T03:53:26;2.40;99.90
31819;DHT22;18384;48.860;9.188;2023-02-15T03:55:55;2.50;99.90
31819;DHT22;18384;48.860;9.188;2023-02-15T03:58:21;2.50;99.90
31819;DHT22;18384;48.860;9.188;2023-02-15T04:01:34;2.50;99.90
31819;DHT22;18384;48.860;9.188;2023-02-15T04:04:27;2.50;99.90
31819;DHT22;18384;48.860;9.188;2023-02-15T04:06:55;2.50;99.90
31819;DHT22;18384;48.860;9.188;2023-02-15T04:09:22;2.50;99.90
31819;DHT22;18384;48.860;9.188;2023-02-15T04:12:06;2.40;99.90
31819;DHT22;18384;48.860;9.188;2023-02-15T04:14:33;2.50;99.90
31819;DHT22;18384;48.860;9.188;2023-02-15T04:17:17;2.00;99.90
31819;DHT22;18384;48.860;9.188;2023-02-15T04:19:43;2.50;99.90
31819;DHT22;18384;48.860;9.188;2023-02-15T04:22:28;2.50;99.90
31819;DHT22;18384;48.860;9.188;2023-02-15T04:25:12;2.60;99.90
31819;DHT22;18384;48.860;9.188;2023-02-15T04:27:41;2.60;99.90
31819;DHT22;18384;48.860;9.188;2023-02-15T04:30:09;2.50;99.90
31819;DHT22;18384;48.860;9.188;2023-02-15T04:32:37;2.50;99.90
31819;DHT22;18384;48.860;9.188;2023-02-15T04:35:05;2.50;99.90
31819;DHT22;18384;48.860;9.188;2023-02-15T04:37:32;2.50;99.90
31819;DHT22;18384;48.860;9.188;2023-02-15T04:39:58;2.60;99.90
31819;DHT22;18384;48.860;9.188;2023-02-15T04:42:25;2.40;99.90
31819;DHT22;18384;48.860;9.188;2023-02-15T04:44:52;2.40;99.90
31819;DHT22;18384;48.860;9.188;2023-02-15T04:47:19;2.30;99.90
31819;DHT22;18384;48.860;9.188;2023-02-15T04:49:46;2.30;99.90
31819;DHT22;18384;48.860;9.188;2023-02-15T04:52:12;2.30;99.90
31819;DHT22;18384;48.860;9.188;2023-02-15T04:54:39;2.30;99.90
31819;DHT22;18384;48.860;9.188;2023-02-15T04:57:05;2.40;99.90
31819;DHT22;18384;48.860;9.188;2023-02-15T04:59:31;2.40;99.90
31819;DHT22;18384;48.860;9.188;2023-02-15T05:01:57;2.40;99.90
31819;DHT22;18384;48.860;9.188;2023-02-15T05:04:23;2.40;99.90
31819;DHT22;18384;48.860;9.188;2023-02-15T05:06:49;2.40;99.90
31819;DHT22;18384;48.860;9.188;2023-02-15T05:09:15;2.40;99.90
31819;DHT22;18384;48.860;9.188;2023-02-15T05:11:42;2.30;99.90
31819;DHT22;18384;48.860;9.188;2023-02-15T05:14:08;2.00;99.90
31819;DHT22;18384;48.860;9.188;2023-02-15T05:16:34;2.30;99.90
31819;DHT22;18384;48.860;9.188;2023-02-15T05:19:00;2.30;99.90
31819;DHT22;18384;48.860;9.188;2023-02-15T05:21:27;2.30;99.90
31819;DHT22;18384;48.860;9.188;2023-02-15T05:23:53;2.20;99.90
31819;DHT22;18384;48.860;9.188;2023-02-15T05:26:21;2.30;99.90
31819;DHT22;18384;48.860;9.188;2023-02-15T05:29:08;2.30;99.90
31819;DHT22;18384;48.860;9.188;2023-02-15T05:31:35;2.20;99.90
31819;DHT22;18384;48.860;9.188;2023-02-15T05:34:01;2.30;99.90
31819;DHT22;18384;48.860;9.188;2023-02-15T05:36:28;2.30;99.90
31819;DHT22;18384;48.860;9.188;2023-02-15T05:38:54;2.30;99.90
31819;DHT22;18384;48.860;9.188;2023-02-15T05:41:21;2.20;99.90
31819;DHT22;18384;48.860;9.188;2023-02-15T05:43:47;2.30;99.90
31819;DHT22;18384;48.860;9.188;2023-02-15T05:46:13;2.20;99.90
31819;DHT22;18384;48.860;9.188;2023-02-15T05:48:39;2.10;99.90
31819;DHT22;18384;48.860;9.188;2023-02-15T05:51:10;2.10;99.90
31819;DHT22;18384;48.860;9.188;2023-02-15T05:53:42;2.20;99.90
31819;DHT22;18384;48.860;9.188;2023-02-15T05:56:11;2.20;99.90
31819;DHT22;18384;48.860;9.188;2023-02-15T05:58:39;2.10;99.90
31819;DHT22;18384;48.860;9.188;2023-02-15T06:01:12;2.20;99.90
31819;DHT22;18384;48.860;9.188;2023-02-15T06:03:40;2.20;99.90
31819;DHT22;18384;48.860;9.188;2023-02-15T06:06:07;2.20;99.90
31819;DHT22;18384;48.860;9.188;2023-02-15T06:08:34;2.20;99.90
31819;DHT22;18384;48.860;9.188;2023-02-15T06:11:01;2.20;99.90
31819;DHT22;18384;48.860;9.188;2023-02-15T06:13:28;2.20;99.90
31819;DHT22;18384;48.860;9.188;2023-02-15T06:15:55;2.20;99.90
31819;DHT22;18384;48.860;9.188;2023-02-15T06:18:21;2.20;99.90
31819;DHT22;18384;48.860;9.188;2023-02-15T06:20:47;2.20;99.90
31819;DHT22;18384;48.860;9.188;2023-02-15T06:23:14;2.00;99.90
31819;DHT22;18384;48.860;9.188;2023-02-15T06:25:40;2.10;99.90
31819;DHT22;18384;48.860;9.188;2023-02-15T06:28:07;2.20;99.90
31819;DHT22;18384;48.860;9.188;2023-02-15T06:30:33;2.00;99.90
31819;DHT22;18384;48.860;9.188;2023-02-15T06:32:59;2.00;99.90
31819;DHT22;18384;48.860;9.188;2023-02-15T06:35:25;2.00;99.90
31819;DHT22;18384;48.860;9.188;2023-02-15T06:37:51;2.00;99.90
31819;DHT22;18384;48.860;9.188;2023-02-15T06:40:17;2.00;99.90
31819;DHT22;18384;48.860;9.188;2023-02-15T06:42:44;2.10;99.90
31819;DHT22;18384;48.860;9.188;2023-02-15T06:45:10;2.20;99.90
31819;DHT22;18384;48.860;9.188;2023-02-15T06:47:37;2.10;99.90
31819;DHT22;18384;48.860;9.188;2023-02-15T06:50:04;2.10;99.90
31819;DHT22;18384;48.860;9.188;2023-02-15T06:52:31;2.10;99.90
31819;DHT22;18384;48.860;9.188;2023-02-15T06:54:57;2.10;99.90
31819;DHT22;18384;48.860;9.188;2023-02-15T06:57:23;2.10;99.90
31819;DHT22;18384;48.860;9.188;2023-02-15T06:59:50;2.20;99.90
31819;DHT22;18384;48.860;9.188;2023-02-15T07:02:16;2.20;99.90
31819;DHT22;18384;48.860;9.188;2023-02-15T07:04:42;2.10;99.90
31819;DHT22;18384;48.860;9.188;2023-02-15T07:07:10;2.20;99.90
31819;DHT22;18384;48.860;9.188;2023-02-15T07:09:37;2.10;99.90
31819;DHT22;18384;48.860;9.188;2023-02-15T07:12:04;2.20;99.90
31819;DHT22;18384;48.860;9.188;2023-02-15T07:14:49;2.20;99.90
31819;DHT22;18384;48.860;9.188;2023-02-15T07:17:16;2.20;99.90
31819;DHT22;18384;48.860;9.188;2023-02-15T07:19:43;2.20;99.90
31819;DHT22;18384;48.860;9.188;2023-02-15T07:22:10;2.20;99.90
31819;DHT22;18384;48.860;9.188;2023-02-15T07:24:36;2.20;99.90
31819;DHT22;18384;48.860;9.188;2023-02-15T07:27:02;2.20;99.90
31819;DHT22;18384;48.860;9.188;2023-02-15T07:29:29;1.60;99.90
31819;DHT22;18384;48.860;9.188;2023-02-15T07:31:55;2.20;99.90
31819;DHT22;18384;48.860;9.188;2023-02-15T07:34:21;2.30;99.90
31819;DHT22;18384;48.860;9.188;2023-02-15T07:36:47;2.30;99.90
31819;DHT22;18384;48.860;9.188;2023-02-15T07:39:16;2.30;99.90
31819;DHT22;18384;48.860;9.188;2023-02-15T07:41:42;2.30;99.90
31819;DHT22;18384;48.860;9.188;2023-02-15T07:44:12;2.30;99.90
31819;DHT22;18384;48.860;9.188;2023-02-15T07:46:39;2.50;99.90
31819;DHT22;18384;48.860;9.188;2023-02-15T07:49:05;2.40;99.90
31819;DHT22;18384;48.860;9.188;2023-02-15T07:51:31;2.50;99.90
31819;DHT22;18384;48.860;9.188;2023-02-15T07:53:58;2.60;99.90
31819;DHT22;18384;48.860;9.188;2023-02-15T07:56:24;2.60;99.90
31819;DHT22;18384;48.860;9.188;2023-02-15T07:58:50;2.50;99.90
31819;DHT22;18384;48.860;9.188;2023-02-15T08:01:21;2.60;99.90
31819;DHT22;18384;48.860;9.188;2023-02-15T08:03:52;2.60;99.90
31819;DHT22;18384;48.860;9.188;2023-02-15T08:06:23;2.70;99.90
31819;DHT22;18384;48.860;9.188;2023-02-15T08:08:51;2.70;99.90
31819;DHT22;18384;48.860;9.188;2023-02-15T08:11:22;2.70;99.90
31819;DHT22;18384;48.860;9.188;2023-02-15T08:14:39;2.70;99.90
31819;DHT22;18384;48.860;9.188;2023-02-15T08:17:05;2.80;99.90
31819;DHT22;18384;48.860;9.188;2023-02-15T08:19:32;2.90;99.90
31819;DHT22;18384;48.860;9.188;2023-02-15T08:22:05;2.90;99.90
31819;DHT22;18384;48.860;9.188;2023-02-15T08:24:37;3.00;99.90
31819;DHT22;18384;48.860;9.188;2023-02-15T08:27:07;3.10;99.90
31819;DHT22;18384;48.860;9.188;2023-02-15T08:29:35;3.10;99.90
31819;DHT22;18384;48.860;9.188;2023-02-15T08:32:07;3.20;99.90
31819;DHT22;18384;48.860;9.188;2023-02-15T08:34:38;3.10;99.90
31819;DHT22;18384;48.860;9.188;2023-02-15T08:37:05;3.10;99.90
31819;DHT22;18384;48.860;9.188;2023-02-15T08:39:32;3.10;99.90
31819;DHT22;18384;48.860;9.188;2023-02-15T08:41:58;3.10;99.90
31819;DHT22;18384;48.860;9.188;2023-02-15T08:44:24;3.20;99.90
31819;DHT22;18384;48.860;9.188;2023-02-15T08:46:50;3.20;99.90
31819;DHT22;18384;48.860;9.188;2023-02-15T08:49:19;3.20;99.90
31819;DHT22;18384;48.860;9.188;2023-02-15T08:51:47;3.40;99.90
31819;DHT22;18384;48.860;9.188;2023-02-15T08:54:16;3.30;99.90
31819;DHT22;18384;48.860;9.188;2023-02-15T08:56:44;3.40;99.90
31819;DHT22;18384;48.860;9.188;2023-02-15T08:59:17;3.30;99.90
31819;DHT22;18384;48.860;9.188;2023-02-15T09:01:48;3.30;99.90
31819;DHT22;18384;48.860;9.188;2023-02-15T09:04:15;3.40;99.90
31819;DHT22;18384;48.860;9.188;2023-02-15T09:06:44;3.40;99.90
31819;DHT22;18384;48.860;9.188;2023-02-15T09:09:11;3.50;99.90
31819;DHT22;18384;48.860;9.188;2023-02-15T09:11:39;3.60;99.90
31819;DHT22;18384;48.860;9.188;2023-02-15T09:14:18;3.70;99.90
31819;DHT22;18384;48.860;9.188;2023-02-15T09:16:51;3.80;99.90
31819;DHT22;18384;48.860;9.188;2023-02-15T09:19:20;3.90;99.90
31819;DHT22;18384;48.860;9.188;2023-02-15T09:21:47;3.90;99.90
31819;DHT22;18384;48.860;9.188;2023-02-15T09:24:15;3.90;99.90
31819;DHT22;18384;48.860;9.188;2023-02-15T09:26:44;3.80;99.90
31819;DHT22;18384;48.860;9.188;2023-02-15T09:29:12;3.80;99.90
31819;DHT22;18384;48.860;9.188;2023-02-15T09:31:44;3.90;99.90
31819;DHT22;18384;48.860;9.188;2023-02-15T09:34:14;4.00;99.90
31819;DHT22;18384;48.860;9.188;2023-02-15T09:36:42;4.10;99.90
31819;DHT22;18384;48.860;9.188;2023-02-15T09:39:15;4.20;99.90
31819;DHT22;18384;48.860;9.188;2023-02-15T09:42:13;4.20;99.90
31819;DHT22;18384;48.860;9.188;2023-02-15T09:45:11;4.20;99.90
31819;DHT22;18384;48.860;9.188;2023-02-15T09:51:12;4.30;99.90
31819;DHT22;18384;48.860;9.188;2023-02-15T09:54:21;4.20;99.90
31819;DHT22;18384;48.860;9.188;2023-02-15T09:58:52;4.30;99.90
31819;DHT22;18384;48.860;9.188;2023-02-15T10:02:24;4.30;99.90
31819;DHT22;18384;48.860;9.188;2023-02-15T10:06:42;4.40;99.90
31819;DHT22;18384;48.860;9.188;2023-02-15T10:13:31;4.30;99.90
31819;DHT22;18384;48.860;9.188;2023-02-15T10:16:18;4.20;99.90
31819;DHT22;18384;48.860;9.188;2023-02-15T10:19:30;4.30;99.90
31819;DHT22;18384;48.860;9.188;2023-02-15T10:23:47;4.20;99.90
31819;DHT22;18384;48.860;9.188;2023-02-15T10:27:12;4.20;99.90
31819;DHT22;18384;48.860;9.188;2023-02-15T10:30:08;4.30;99.90
31819;DHT22;18384;48.860;9.188;2023-02-15T10:32:59;4.30;99.90
31819;DHT22;18384;48.860;9.188;2023-02-15T10:35:38;4.40;99.90
31819;DHT22;18384;48.860;9.188;2023-02-15T10:39:58;4.40;99.90
31819;DHT22;18384;48.860;9.188;2023-02-15T11:13:13;4.80;99.90
31819;DHT22;18384;48.860;9.188;2023-02-15T11:16:08;4.90;99.90
31819;DHT22;18384;48.860;9.188;2023-02-15T11:19:32;5.10;99.90
31819;DHT22;18384;48.860;9.188;2023-02-15T11:22:04;5.20;99.90
31819;DHT22;18384;48.860;9.188;2023-02-15T11:24:35;5.30;99.90
31819;DHT22;18384;48.860;9.188;2023-02-15T11:27:24;5.40;99.90
31819;DHT22;18384;48.860;9.188;2023-02-15T11:30:22;5.50;99.90
31819;DHT22;18384;48.860;9.188;2023-02-15T11:32:55;5.60;99.90
31819;DHT22;18384;48.860;9.188;2023-02-15T11:35:53;5.70;99.90
31819;DHT22;18384;48.860;9.188;2023-02-15T11:38:43;5.70;99.90
31819;DHT22;18384;48.860;9.188;2023-02-15T11:41:16;5.80;99.90
31819;DHT22;18384;48.860;9.188;2023-02-15T11:44:46;5.90;99.90
31819;DHT22;18384;48.860;9.188;2023-02-15T11:47:22;6.00;99.90
31819;DHT22;18384;48.860;9.188;2023-02-15T11:49:49;6.10;99.90
31819;DHT22;18384;48.860;9.188;2023-02-15T11:52:16;6.10;99.90
31819;DHT22;18384;48.860;9.188;2023-02-15T11:54:47;6.20;99.90
31819;DHT22;18384;48.860;9.188;2023-02-15T11:57:31;6.30;99.90
31819;DHT22;18384;48.860;9.188;2023-02-15T12:00:28;6.40;99.90
31819;DHT22;18384;48.860;9.188;2023-02-15T12:03:33;6.40;99.90
31819;DHT22;18384;48.860;9.188;2023-02-15T12:06:31;6.40;99.90
31819;DHT22;18384;48.860;9.188;2023-02-15T12:15:48;6.40;99.90
31819;DHT22;18384;48.860;9.188;2023-02-15T12:18:59;6.50;99.90
31819;DHT22;18384;48.860;9.188;2023-02-15T12:21:33;6.40;99.90
31819;DHT22;18384;48.860;9.188;2023-02-15T12:24:22;6.40;99.90
31819;DHT22;18384;48.860;9.188;2023-02-15T12:27:04;6.40;99.90
31819;DHT22;18384;48.860;9.188;2023-02-15T12:29:43;6.50;99.90
31819;DHT22;18384;48.860;9.188;2023-02-15T12:32:22;6.50;99.90
31819;DHT22;18384;48.860;9.188;2023-02-15T12:34:51;6.50;99.90
31819;DHT22;18384;48.860;9.188;2023-02-15T12:37:23;6.40;99.90
31819;DHT22;18384;48.860;9.188;2023-02-15T12:40:17;6.40;99.90
31819;DHT22;18384;48.860;9.188;2023-02-15T12:42:48;6.50;99.90
31819;DHT22;18384;48.860;9.188;2023-02-15T12:45:27;6.50;99.90
31819;DHT22;18384;48.860;9.188;2023-02-15T12:50:06;6.50;99.90
31819;DHT22;18384;48.860;9.188;2023-02-15T12:52:36;6.50;99.90
31819;DHT22;18384;48.860;9.188;2023-02-15T12:55:25;6.60;99.90
31819;DHT22;18384;48.860;9.188;2023-02-15T12:58:14;6.60;99.90
31819;DHT22;18384;48.860;9.188;2023-02-15T13:00:44;6.60;99.90
31819;DHT22;18384;48.860;9.188;2023-02-15T13:03:19;6.70;99.90
31819;DHT22;18384;48.860;9.188;2023-02-15T13:05:53;6.70;99.90
31819;DHT22;18384;48.860;9.188;2023-02-15T13:08:31;6.70;99.90
31819;DHT22;18384;48.860;9.188;2023-02-15T13:11:11;6.80;99.90
31819;DHT22;18384;48.860;9.188;2023-02-15T13:13:55;6.80;99.90
31819;DHT22;18384;48.860;9.188;2023-02-15T13:16:33;6.80;99.90
31819;DHT22;18384;48.860;9.188;2023-02-15T13:22:42;7.00;99.90
31819;DHT22;18384;48.860;9.188;2023-02-15T13:25:22;7.10;99.90
31819;DHT22;18384;48.860;9.188;2023-02-15T13:28:14;7.10;99.90
31819;DHT22;18384;48.860;9.188;2023-02-15T13:30:45;7.20;99.90
31819;DHT22;18384;48.860;9.188;2023-02-15T13:33:34;7.20;99.90
31819;DHT22;18384;48.860;9.188;2023-02-15T13:36:31;7.30;99.90
31819;DHT22;18384;48.860;9.188;2023-02-15T13:41:04;7.30;99.90
31819;DHT22;18384;48.860;9.188;2023-02-15T13:44:03;7.30;99.90
31819;DHT22;18384;48.860;9.188;2023-02-15T13:48:06;7.40;99.90
31819;DHT22;18384;48.860;9.188;2023-02-15T13:53:47;7.50;99.90
31819;DHT22;18384;48.860;9.188;2023-02-15T13:56:59;7.50;99.90
31819;DHT22;18384;48.860;9.188;2023-02-15T14:02:58;7.60;99.90
31819;DHT22;18384;48.860;9.188;2023-02-15T14:19:35;7.70;99.90
31819;DHT22;18384;48.860;9.188;2023-02-15T14:25:42;7.80;99.90
31819;DHT22;18384;48.860;9.188;2023-02-15T14:28:22;7.90;99.90
31819;DHT22;18384;48.860;9.188;2023-02-15T14:30:55;7.90;99.70
31819;DHT22;18384;48.860;9.188;2023-02-15T14:33:35;7.90;99.70
31819;DHT22;18384;48.860;9.188;2023-02-15T14:36:07;7.90;99.50
31819;DHT22;18384;48.860;9.188;2023-02-15T14:39:11;7.90;99.60
31819;DHT22;18384;48.860;9.188;2023-02-15T14:42:23;7.90;99.60
31819;DHT22;18384;48.860;9.188;2023-02-15T14:46:55;8.00;99.40
31819;DHT22;18384;48.860;9.188;2023-02-15T14:49:31;8.00;99.40
31819;DHT22;18384;48.860;9.188;2023-02-15T14:52:06;8.00;99.40
31819;DHT22;18384;48.860;9.188;2023-02-15T14:54:57;8.00;99.30
31819;DHT22;18384;48.860;9.188;2023-02-15T14:57:24;8.00;99.50
31819;DHT22;18384;48.860;9.188;2023-02-15T15:00:02;8.00;99.40
31819;DHT22;18384;48.860;9.188;2023-02-15T15:02:49;8.10;99.20
31819;DHT22;18384;48.860;9.188;2023-02-15T15:05:34;8.10;99.30
31819;DHT22;18384;48.860;9.188;2023-02-15T15:08:03;8.10;99.20
31819;DHT22;18384;48.860;9.188;2023-02-15T15:10:42;8.10;99.20
31819;DHT22;18384;48.860;9.188;2023-02-15T15:13:35;8.10;99.10
31819;DHT22;18384;48.860;9.188;2023-02-15T15:17:51;8.10;99.20
31819;DHT22;18384;48.860;9.188;2023-02-15T15:20:45;8.10;99.20
31819;DHT22;18384;48.860;9.188;2023-02-15T15:23:55;8.10;99.20
31819;DHT22;18384;48.860;9.188;2023-02-15T15:26:30;8.10;99.20
31819;DHT22;18384;48.860;9.188;2023-02-15T15:29:00;8.10;99.20
31819;DHT22;18384;48.860;9.188;2023-02-15T15:31:36;8.10;99.10
31819;DHT22;18384;48.860;9.188;2023-02-15T15:39:48;8.10;99.20
31819;DHT22;18384;48.860;9.188;2023-02-15T15:45:52;8.10;99.30
31819;DHT22;18384;48.860;9.188;2023-02-15T15:48:30;8.10;99.80
31819;DHT22;18384;48.860;9.188;2023-02-15T15:51:00;8.00;99.90
31819;DHT22;18384;48.860;9.188;2023-02-15T15:53:34;8.00;99.90
31819;DHT22;18384;48.860;9.188;2023-02-15T15:56:11;8.00;99.90
31819;DHT22;18384;48.860;9.188;2023-02-15T15:58:51;7.90;99.90
31819;DHT22;18384;48.860;9.188;2023-02-15T16:01:26;7.90;99.90
31819;DHT22;18384;48.860;9.188;2023-02-15T16:03:55;7.90;99.90
31819;DHT22;18384;48.860;9.188;2023-02-15T16:06:32;7.90;99.90
31819;DHT22;18384;48.860;9.188;2023-02-15T16:09:11;7.80;99.90
31819;DHT22;18384;48.860;9.188;2023-02-15T16:11:51;9.70;99.90
31819;DHT22;18384;48.860;9.188;2023-02-15T16:14:35;7.80;99.90
31819;DHT22;18384;48.860;9.188;2023-02-15T16:17:12;7.70;99.90
31819;DHT22;18384;48.860;9.188;2023-02-15T16:19:43;7.70;99.90
31819;DHT22;18384;48.860;9.188;2023-02-15T16:22:19;7.70;99.90
31819;DHT22;18384;48.860;9.188;2023-02-15T16:28:19;7.60;99.90
31819;DHT22;18384;48.860;9.188;2023-02-15T16:30:46;7.40;99.90
31819;DHT22;18384;48.860;9.188;2023-02-15T16:33:36;7.30;99.90
31819;DHT22;18384;48.860;9.188;2023-02-15T16:36:03;7.20;99.90
31819;DHT22;18384;48.860;9.188;2023-02-15T16:39:33;7.10;99.90
31819;DHT22;18384;48.860;9.188;2023-02-15T16:42:07;7.00;99.90
31819;DHT22;18384;48.860;9.188;2023-02-15T16:44:34;8.30;99.90
31819;DHT22;18384;48.860;9.188;2023-02-15T16:47:00;7.00;99.90
31819;DHT22;18384;48.860;9.188;2023-02-15T16:49:29;6.90;99.90
31819;DHT22;18384;48.860;9.188;2023-02-15T16:51:59;6.90;99.90
31819;DHT22;18384;48.860;9.188;2023-02-15T16:54:34;6.80;99.90
31819;DHT22;18384;48.860;9.188;2023-02-15T16:57:01;6.80;99.90
31819;DHT22;18384;48.860;9.188;2023-02-15T17:00:35;6.80;99.90
31819;DHT22;18384;48.860;9.188;2023-02-15T17:03:21;6.70;99.90
31819;DHT22;18384;48.860;9.188;2023-02-15T17:05:51;6.70;99.90
31819;DHT22;18384;48.860;9.188;2023-02-15T17:08:34;6.60;99.90
31819;DHT22;18384;48.860;9.188;2023-02-15T17:11:21;6.60;99.90
31819;DHT22;18384;48.860;9.188;2023-02-15T17:20:37;6.60;99.90
31819;DHT22;18384;48.860;9.188;2023-02-15T17:23:05;6.50;99.90
31819;DHT22;18384;48.860;9.188;2023-02-15T17:25:40;6.50;99.90
31819;DHT22;18384;48.860;9.188;2023-02-15T17:28:18;6.40;99.90
31819;DHT22;18384;48.860;9.188;2023-02-15T17:30:45;6.40;99.90
31819;DHT22;18384;48.860;9.188;2023-02-15T17:33:25;6.30;99.90
31819;DHT22;18384;48.860;9.188;2023-02-15T17:36:19;6.30;99.90
31819;DHT22;18384;48.860;9.188;2023-02-15T17:41:47;6.20;99.90
31819;DHT22;18384;48.860;9.188;2023-02-15T17:44:13;6.10;99.90
31819;DHT22;18384;48.860;9.188;2023-02-15T17:46:41;6.10;99.90
31819;DHT22;18384;48.860;9.188;2023-02-15T17:49:22;6.10;99.90
31819;DHT22;18384;48.860;9.188;2023-02-15T17:51:50;6.00;99.90
31819;DHT22;18384;48.860;9.188;2023-02-15T17:54:16;6.00;99.90
31819;DHT22;18384;48.860;9.188;2023-02-15T17:57:01;6.00;99.90
31819;DHT22;18384;48.860;9.188;2023-02-15T17:59:30;5.90;99.90
31819;DHT22;18384;48.860;9.188;2023-02-15T18:01:56;5.90;99.90
31819;DHT22;18384;48.860;9.188;2023-02-15T18:04:41;5.90;99.90
31819;DHT22;18384;48.860;9.188;2023-02-15T18:07:26;5.90;99.90
31819;DHT22;18384;48.860;9.188;2023-02-15T18:10:18;5.80;99.90
31819;DHT22;18384;48.860;9.188;2023-02-15T18:13:03;5.80;99.90
31819;DHT22;18384;48.860;9.188;2023-02-15T18:15:29;5.80;99.90
31819;DHT22;18384;48.860;9.188;2023-02-15T18:17:56;7.00;99.90
31819;DHT22;18384;48.860;9.188;2023-02-15T18:20:32;5.70;99.90
31819;DHT22;18384;48.860;9.188;2023-02-15T18:23:01;5.70;99.90
31819;DHT22;18384;48.860;9.188;2023-02-15T18:25:27;5.70;99.90
31819;DHT22;18384;48.860;9.188;2023-02-15T18:27:54;5.60;99.90
31819;DHT22;18384;48.860;9.188;2023-02-15T18:30:22;5.60;99.90
31819;DHT22;18384;48.860;9.188;2023-02-15T18:32:52;5.60;99.90
31819;DHT22;18384;48.860;9.188;2023-02-15T18:35:24;5.60;99.90
31819;DHT22;18384;48.860;9.188;2023-02-15T18:37:53;5.60;99.90
31819;DHT22;18384;48.860;9.188;2023-02-15T18:40:21;5.50;99.90
31819;DHT22;18384;48.860;9.188;2023-02-15T18:42:50;5.50;99.90